sensor_id;sensor_type;location;lat;lon;timestamp;temperature;humidity
59977;DHT22;45837;51.076;3.578;2023-02-18T00:00:10;19.50;57.10
59977;DHT22;45837;51.076;3.578;2023-02-18T00:02:36;19.50;57.10
59977;DHT22;45837;51.076;3.578;2023-02-18T00:05:01;19.50;57.10
59977;DHT22;45837;51.076;3.578;2023-02-18T00:07:27;19.50;57.20
59977;DHT22;45837;51.076;3.578;2023-02-18T00:09:53;19.50;57.20
59977;DHT22;45837;51.076;3.578;2023-02-18T00:12:19;19.50;57.10
59977;DHT22;45837;51.076;3.578;2023-02-18T00:14:44;19.50;57.20
59977;DHT22;45837;51.076;3.578;2023-02-18T00:17:10;19.50;57.20
59977;DHT22;45837;51.076;3.578;2023-02-18T00:19:36;19.50;57.10
59977;DHT22;45837;51.076;3.578;2023-02-18T00:22:01;19.50;57.70
59977;DHT22;45837;51.076;3.578;2023-02-18T00:24:27;19.40;57.30
59977;DHT22;45837;51.076;3.578;2023-02-18T00:26:52;19.40;57.40
59977;DHT22;45837;51.076;3.578;2023-02-18T00:29:19;19.40;57.40
59977;DHT22;45837;51.076;3.578;2023-02-18T00:31:46;19.40;57.40
59977;DHT22;45837;51.076;3.578;2023-02-18T00:34:12;19.40;57.30
59977;DHT22;45837;51.076;3.578;2023-02-18T00:36:38;19.40;57.30
59977;DHT22;45837;51.076;3.578;2023-02-18T00:39:05;19.40;57.20
59977;DHT22;45837;51.076;3.578;2023-02-18T00:41:32;19.40;57.20
59977;DHT22;45837;51.076;3.578;2023-02-18T00:43:58;19.40;57.20
59977;DHT22;45837;51.076;3.578;2023-02-18T00:46:24;19.40;57.20
59977;DHT22;45837;51.076;3.578;2023-02-18T00:48:52;19.40;57.10
59977;DHT22;45837;51.076;3.578;2023-02-18T00:51:18;19.40;57.70
59977;DHT22;45837;51.076;3.578;2023-02-18T00:53:47;19.40;57.00
59977;DHT22;45837;51.076;3.578;2023-02-18T00:56:12;19.40;57.00
59977;DHT22;45837;51.076;3.578;2023-02-18T00:58:41;19.30;56.90
59977;DHT22;45837;51.076;3.578;2023-02-18T01:01:07;19.30;56.90
59977;DHT22;45837;51.076;3.578;2023-02-18T01:03:33;19.30;56.90
59977;DHT22;45837;51.076;3.578;2023-02-18T01:05:59;19.40;56.90
59977;DHT22;45837;51.076;3.578;2023-02-18T01:08:25;19.30;56.80
59977;DHT22;45837;51.076;3.578;2023-02-18T01:10:52;19.30;56.80
59977;DHT22;45837;51.076;3.578;2023-02-18T01:13:18;19.30;56.80
59977;DHT22;45837;51.076;3.578;2023-02-18T01:15:43;19.30;56.80
59977;DHT22;45837;51.076;3.578;2023-02-18T01:18:10;19.30;56.80
59977;DHT22;45837;51.076;3.578;2023-02-18T01:20:37;19.30;56.70
59977;DHT22;45837;51.076;3.578;2023-02-18T01:23:03;19.30;56.70
59977;DHT22;45837;51.076;3.578;2023-02-18T01:25:29;19.30;56.70
59977;DHT22;45837;51.076;3.578;2023-02-18T01:27:55;19.30;56.60
59977;DHT22;45837;51.076;3.578;2023-02-18T01:30:21;19.30;56.60
59977;DHT22;45837;51.076;3.578;2023-02-18T01:32:47;19.20;56.60
59977;DHT22;45837;51.076;3.578;2023-02-18T01:35:14;19.20;56.60
59977;DHT22;45837;51.076;3.578;2023-02-18T01:37:40;19.30;57.20
59977;DHT22;45837;51.076;3.578;2023-02-18T01:40:06;19.20;56.60
59977;DHT22;45837;51.076;3.578;2023-02-18T01:42:32;19.20;56.60
59977;DHT22;45837;51.076;3.578;2023-02-18T01:47:42;19.20;56.50
59977;DHT22;45837;51.076;3.578;2023-02-18T01:50:08;19.20;56.50
59977;DHT22;45837;51.076;3.578;2023-02-18T01:52:33;19.20;56.50
59977;DHT22;45837;51.076;3.578;2023-02-18T01:54:59;19.20;56.50
59977;DHT22;45837;51.076;3.578;2023-02-18T01:57:28;19.10;56.50
59977;DHT22;45837;51.076;3.578;2023-02-18T01:59:56;19.20;56.40
59977;DHT22;45837;51.076;3.578;2023-02-18T02:02:24;19.20;56.40
59977;DHT22;45837;51.076;3.578;2023-02-18T02:04:52;19.20;56.40
59977;DHT22;45837;51.076;3.578;2023-02-18T02:07:18;19.10;56.30
59977;DHT22;45837;51.076;3.578;2023-02-18T02:09:45;19.20;56.90
59977;DHT22;45837;51.076;3.578;2023-02-18T02:18:00;19.20;56.30
59977;DHT22;45837;51.076;3.578;2023-02-18T02:31:30;19.10;56.20
59977;DHT22;45837;51.076;3.578;2023-02-18T02:35:57;19.10;56.20
59977;DHT22;45837;51.076;3.578;2023-02-18T02:38:31;19.10;56.20
59977;DHT22;45837;51.076;3.578;2023-02-18T02:41:31;19.10;56.20
59977;DHT22;45837;51.076;3.578;2023-02-18T02:46:18;19.10;56.10
59977;DHT22;45837;51.076;3.578;2023-02-18T02:48:48;19.10;56.10
59977;DHT22;45837;51.076;3.578;2023-02-18T02:51:27;19.00;56.10
59977;DHT22;45837;51.076;3.578;2023-02-18T02:54:05;19.00;56.10
59977;DHT22;45837;51.076;3.578;2023-02-18T02:56:32;19.10;56.10
59977;DHT22;45837;51.076;3.578;2023-02-18T02:59:00;19.00;56.00
59977;DHT22;45837;51.076;3.578;2023-02-18T03:07:01;19.00;56.50
59977;DHT22;45837;51.076;3.578;2023-02-18T03:09:39;19.00;55.90
59977;DHT22;45837;51.076;3.578;2023-02-18T03:12:11;19.00;56.50
59977;DHT22;45837;51.076;3.578;2023-02-18T03:14:46;19.00;55.90
59977;DHT22;45837;51.076;3.578;2023-02-18T03:20:16;19.00;55.90
59977;DHT22;45837;51.076;3.578;2023-02-18T03:22:45;19.40;56.10
59977;DHT22;45837;51.076;3.578;2023-02-18T03:25:12;19.00;56.50
59977;DHT22;45837;51.076;3.578;2023-02-18T03:27:49;19.00;55.90
59977;DHT22;45837;51.076;3.578;2023-02-18T03:30:23;19.00;55.90
59977;DHT22;45837;51.076;3.578;2023-02-18T03:32:51;19.00;55.90
59977;DHT22;45837;51.076;3.578;2023-02-18T03:35:18;19.00;55.90
59977;DHT22;45837;51.076;3.578;2023-02-18T03:37:49;19.00;55.90
59977;DHT22;45837;51.076;3.578;2023-02-18T03:40:16;19.00;55.90
59977;DHT22;45837;51.076;3.578;2023-02-18T03:42:42;19.00;55.90
59977;DHT22;45837;51.076;3.578;2023-02-18T03:45:09;18.90;55.80
59977;DHT22;45837;51.076;3.578;2023-02-18T03:47:34;18.90;55.80
59977;DHT22;45837;51.076;3.578;2023-02-18T03:50:00;18.90;56.30
59977;DHT22;45837;51.076;3.578;2023-02-18T03:52:26;18.90;55.80
59977;DHT22;45837;51.076;3.578;2023-02-18T03:54:51;18.90;55.80
59977;DHT22;45837;51.076;3.578;2023-02-18T03:57:17;18.90;55.80
59977;DHT22;45837;51.076;3.578;2023-02-18T03:59:43;18.90;55.80
59977;DHT22;45837;51.076;3.578;2023-02-18T04:02:09;18.90;55.80
59977;DHT22;45837;51.076;3.578;2023-02-18T04:04:34;18.90;55.80
59977;DHT22;45837;51.076;3.578;2023-02-18T04:07:00;18.90;55.80
59977;DHT22;45837;51.076;3.578;2023-02-18T04:09:26;18.90;55.80
59977;DHT22;45837;51.076;3.578;2023-02-18T04:11:51;18.90;55.80
59977;DHT22;45837;51.076;3.578;2023-02-18T04:14:17;18.80;55.70
59977;DHT22;45837;51.076;3.578;2023-02-18T04:16:42;18.90;55.80
59977;DHT22;45837;51.076;3.578;2023-02-18T04:19:08;18.90;55.70
59977;DHT22;45837;51.076;3.578;2023-02-18T04:21:34;18.90;55.70
59977;DHT22;45837;51.076;3.578;2023-02-18T04:24:00;18.80;55.60
59977;DHT22;45837;51.076;3.578;2023-02-18T04:26:26;18.80;55.60
59977;DHT22;45837;51.076;3.578;2023-02-18T04:28:51;18.90;55.60
59977;DHT22;45837;51.076;3.578;2023-02-18T04:31:17;18.90;55.60
59977;DHT22;45837;51.076;3.578;2023-02-18T04:33:43;18.90;55.60
59977;DHT22;45837;51.076;3.578;2023-02-18T04:36:08;18.80;55.50
59977;DHT22;45837;51.076;3.578;2023-02-18T04:38:34;18.80;55.50
59977;DHT22;45837;51.076;3.578;2023-02-18T04:41:00;18.80;55.50
59977;DHT22;45837;51.076;3.578;2023-02-18T04:43:25;18.80;55.60
59977;DHT22;45837;51.076;3.578;2023-02-18T04:45:51;18.80;55.50
59977;DHT22;45837;51.076;3.578;2023-02-18T04:48:17;18.80;55.50
59977;DHT22;45837;51.076;3.578;2023-02-18T04:50:43;18.80;55.50
59977;DHT22;45837;51.076;3.578;2023-02-18T04:53:08;18.80;55.50
59977;DHT22;45837;51.076;3.578;2023-02-18T04:55:34;18.80;55.50
59977;DHT22;45837;51.076;3.578;2023-02-18T04:58:00;18.80;55.50
59977;DHT22;45837;51.076;3.578;2023-02-18T05:00:25;18.80;55.50
59977;DHT22;45837;51.076;3.578;2023-02-18T05:02:52;18.80;55.50
59977;DHT22;45837;51.076;3.578;2023-02-18T05:05:18;18.80;55.50
59977;DHT22;45837;51.076;3.578;2023-02-18T05:07:44;18.80;55.50
59977;DHT22;45837;51.076;3.578;2023-02-18T05:10:10;18.70;55.50
59977;DHT22;45837;51.076;3.578;2023-02-18T05:12:38;18.80;55.50
59977;DHT22;45837;51.076;3.578;2023-02-18T05:15:04;18.80;55.50
59977;DHT22;45837;51.076;3.578;2023-02-18T05:17:30;18.80;55.50
59977;DHT22;45837;51.076;3.578;2023-02-18T05:19:56;18.80;55.50
59977;DHT22;45837;51.076;3.578;2023-02-18T05:22:21;18.70;55.50
59977;DHT22;45837;51.076;3.578;2023-02-18T05:24:47;18.70;55.50
59977;DHT22;45837;51.076;3.578;2023-02-18T05:27:13;18.70;55.40
59977;DHT22;45837;51.076;3.578;2023-02-18T05:29:38;18.70;55.40
59977;DHT22;45837;51.076;3.578;2023-02-18T05:32:04;18.70;55.40
59977;DHT22;45837;51.076;3.578;2023-02-18T05:34:30;18.70;55.40
59977;DHT22;45837;51.076;3.578;2023-02-18T05:36:56;18.70;55.40
59977;DHT22;45837;51.076;3.578;2023-02-18T05:39:21;18.70;55.40
59977;DHT22;45837;51.076;3.578;2023-02-18T05:41:47;18.70;55.30
59977;DHT22;45837;51.076;3.578;2023-02-18T05:44:12;18.70;55.40
59977;DHT22;45837;51.076;3.578;2023-02-18T05:47:03;18.70;55.30
59977;DHT22;45837;51.076;3.578;2023-02-18T05:49:30;18.70;55.30
59977;DHT22;45837;51.076;3.578;2023-02-18T05:51:55;18.70;55.30
59977;DHT22;45837;51.076;3.578;2023-02-18T05:54:21;18.70;55.20
59977;DHT22;45837;51.076;3.578;2023-02-18T05:56:47;18.70;55.20
59977;DHT22;45837;51.076;3.578;2023-02-18T05:59:13;18.70;55.20
59977;DHT22;45837;51.076;3.578;2023-02-18T06:01:39;18.60;55.10
59977;DHT22;45837;51.076;3.578;2023-02-18T06:04:05;18.70;55.20
59977;DHT22;45837;51.076;3.578;2023-02-18T06:06:31;18.60;55.10
59977;DHT22;45837;51.076;3.578;2023-02-18T06:08:56;18.70;55.10
59977;DHT22;45837;51.076;3.578;2023-02-18T06:11:24;18.60;55.10
59977;DHT22;45837;51.076;3.578;2023-02-18T06:13:49;18.60;55.10
59977;DHT22;45837;51.076;3.578;2023-02-18T06:16:15;18.60;55.10
59977;DHT22;45837;51.076;3.578;2023-02-18T06:18:41;18.60;55.10
59977;DHT22;45837;51.076;3.578;2023-02-18T06:21:06;18.60;55.00
59977;DHT22;45837;51.076;3.578;2023-02-18T06:23:32;18.60;55.10
59977;DHT22;45837;51.076;3.578;2023-02-18T06:25:58;18.60;55.10
59977;DHT22;45837;51.076;3.578;2023-02-18T06:28:23;18.60;55.00
59977;DHT22;45837;51.076;3.578;2023-02-18T06:30:49;18.60;55.00
59977;DHT22;45837;51.076;3.578;2023-02-18T06:33:15;18.60;54.90
59977;DHT22;45837;51.076;3.578;2023-02-18T06:35:41;18.60;54.90
59977;DHT22;45837;51.076;3.578;2023-02-18T06:38:07;18.60;54.80
59977;DHT22;45837;51.076;3.578;2023-02-18T06:40:33;18.60;54.80
59977;DHT22;45837;51.076;3.578;2023-02-18T06:42:58;18.60;54.80
59977;DHT22;45837;51.076;3.578;2023-02-18T06:45:24;18.60;54.80
59977;DHT22;45837;51.076;3.578;2023-02-18T06:47:50;18.50;54.70
59977;DHT22;45837;51.076;3.578;2023-02-18T06:50:15;18.60;54.70
59977;DHT22;45837;51.076;3.578;2023-02-18T06:52:41;18.60;54.80
59977;DHT22;45837;51.076;3.578;2023-02-18T06:55:07;18.50;54.70
59977;DHT22;45837;51.076;3.578;2023-02-18T06:57:34;18.50;54.80
59977;DHT22;45837;51.076;3.578;2023-02-18T07:00:00;18.50;54.70
59977;DHT22;45837;51.076;3.578;2023-02-18T07:02:26;18.50;54.60
59977;DHT22;45837;51.076;3.578;2023-02-18T07:04:52;18.50;54.60
59977;DHT22;45837;51.076;3.578;2023-02-18T07:07:17;18.50;54.60
59977;DHT22;45837;51.076;3.578;2023-02-18T07:09:43;18.50;54.00
59977;DHT22;45837;51.076;3.578;2023-02-18T07:12:09;18.50;53.50
59977;DHT22;45837;51.076;3.578;2023-02-18T07:14:34;18.50;53.40
59977;DHT22;45837;51.076;3.578;2023-02-18T07:17:00;18.50;54.30
59977;DHT22;45837;51.076;3.578;2023-02-18T07:19:25;18.50;54.70
59977;DHT22;45837;51.076;3.578;2023-02-18T07:21:51;18.50;54.70
59977;DHT22;45837;51.076;3.578;2023-02-18T07:24:18;18.50;54.70
59977;DHT22;45837;51.076;3.578;2023-02-18T07:26:44;18.50;55.00
59977;DHT22;45837;51.076;3.578;2023-02-18T07:29:10;18.50;55.80
59977;DHT22;45837;51.076;3.578;2023-02-18T07:31:35;18.50;55.80
59977;DHT22;45837;51.076;3.578;2023-02-18T07:34:03;18.50;56.10
59977;DHT22;45837;51.076;3.578;2023-02-18T07:36:28;18.60;56.30
59977;DHT22;45837;51.076;3.578;2023-02-18T07:38:54;18.70;56.50
59977;DHT22;45837;51.076;3.578;2023-02-18T07:41:20;18.70;56.90
59977;DHT22;45837;51.076;3.578;2023-02-18T07:43:46;18.70;57.20
59977;DHT22;45837;51.076;3.578;2023-02-18T07:46:12;18.80;57.10
59977;DHT22;45837;51.076;3.578;2023-02-18T07:48:37;18.80;57.30
59977;DHT22;45837;51.076;3.578;2023-02-18T07:51:07;18.80;57.50
59977;DHT22;45837;51.076;3.578;2023-02-18T07:53:33;18.90;57.70
59977;DHT22;45837;51.076;3.578;2023-02-18T07:55:58;19.00;57.50
59977;DHT22;45837;51.076;3.578;2023-02-18T07:58:26;19.10;57.30
59977;DHT22;45837;51.076;3.578;2023-02-18T08:00:52;19.20;57.50
59977;DHT22;45837;51.076;3.578;2023-02-18T08:03:19;19.30;57.40
59977;DHT22;45837;51.076;3.578;2023-02-18T08:05:47;19.40;56.70
59977;DHT22;45837;51.076;3.578;2023-02-18T08:08:16;19.50;56.50
59977;DHT22;45837;51.076;3.578;2023-02-18T08:10:44;19.60;56.50
59977;DHT22;45837;51.076;3.578;2023-02-18T08:13:10;19.70;56.40
59977;DHT22;45837;51.076;3.578;2023-02-18T08:15:36;19.80;56.10
59977;DHT22;45837;51.076;3.578;2023-02-18T08:18:02;19.90;55.90
59977;DHT22;45837;51.076;3.578;2023-02-18T08:20:28;20.00;55.90
59977;DHT22;45837;51.076;3.578;2023-02-18T08:22:54;20.00;55.80
59977;DHT22;45837;51.076;3.578;2023-02-18T08:25:19;20.20;55.70
59977;DHT22;45837;51.076;3.578;2023-02-18T08:27:45;20.20;55.60
59977;DHT22;45837;51.076;3.578;2023-02-18T08:30:11;20.30;55.30
59977;DHT22;45837;51.076;3.578;2023-02-18T08:32:36;20.40;54.80
59977;DHT22;45837;51.076;3.578;2023-02-18T08:35:02;20.40;53.90
59977;DHT22;45837;51.076;3.578;2023-02-18T08:37:28;20.40;53.90
59977;DHT22;45837;51.076;3.578;2023-02-18T08:39:54;20.30;52.80
59977;DHT22;45837;51.076;3.578;2023-02-18T08:42:20;20.30;52.30
59977;DHT22;45837;51.076;3.578;2023-02-18T08:44:45;20.30;50.50
59977;DHT22;45837;51.076;3.578;2023-02-18T08:47:11;20.20;49.30
59977;DHT22;45837;51.076;3.578;2023-02-18T08:49:37;20.20;48.90
59977;DHT22;45837;51.076;3.578;2023-02-18T08:52:03;20.10;48.90
59977;DHT22;45837;51.076;3.578;2023-02-18T08:54:29;20.00;48.30
59977;DHT22;45837;51.076;3.578;2023-02-18T08:56:55;20.00;48.50
59977;DHT22;45837;51.076;3.578;2023-02-18T08:59:25;19.90;48.40
59977;DHT22;45837;51.076;3.578;2023-02-18T09:01:51;19.90;48.40
59977;DHT22;45837;51.076;3.578;2023-02-18T09:04:16;19.90;48.60
59977;DHT22;45837;51.076;3.578;2023-02-18T09:06:42;19.80;48.70
59977;DHT22;45837;51.076;3.578;2023-02-18T09:09:08;19.80;48.80
59977;DHT22;45837;51.076;3.578;2023-02-18T09:11:35;19.80;48.90
59977;DHT22;45837;51.076;3.578;2023-02-18T09:14:00;19.80;49.00
59977;DHT22;45837;51.076;3.578;2023-02-18T09:16:27;19.80;49.00
59977;DHT22;45837;51.076;3.578;2023-02-18T09:18:54;19.90;49.20
59977;DHT22;45837;51.076;3.578;2023-02-18T09:21:20;19.90;49.90
59977;DHT22;45837;51.076;3.578;2023-02-18T09:23:48;19.80;49.40
59977;DHT22;45837;51.076;3.578;2023-02-18T09:26:14;19.80;49.60
59977;DHT22;45837;51.076;3.578;2023-02-18T09:28:41;19.80;49.80
59977;DHT22;45837;51.076;3.578;2023-02-18T09:31:08;19.80;49.90
59977;DHT22;45837;51.076;3.578;2023-02-18T09:33:34;19.80;50.00
59977;DHT22;45837;51.076;3.578;2023-02-18T09:36:00;19.80;50.00
59977;DHT22;45837;51.076;3.578;2023-02-18T09:38:26;19.80;50.10
59977;DHT22;45837;51.076;3.578;2023-02-18T09:40:52;19.80;50.30
59977;DHT22;45837;51.076;3.578;2023-02-18T09:45:47;19.80;50.40
59977;DHT22;45837;51.076;3.578;2023-02-18T09:48:13;19.80;50.50
59977;DHT22;45837;51.076;3.578;2023-02-18T09:50:39;19.70;50.70
59977;DHT22;45837;51.076;3.578;2023-02-18T09:53:05;19.70;50.80
59977;DHT22;45837;51.076;3.578;2023-02-18T09:55:35;19.70;50.80
59977;DHT22;45837;51.076;3.578;2023-02-18T09:58:04;19.70;51.00
59977;DHT22;45837;51.076;3.578;2023-02-18T10:00:35;19.70;51.10
59977;DHT22;45837;51.076;3.578;2023-02-18T10:05:28;19.60;51.40
59977;DHT22;45837;51.076;3.578;2023-02-18T10:08:10;19.60;51.50
59977;DHT22;45837;51.076;3.578;2023-02-18T10:10:41;19.50;51.60
59977;DHT22;45837;51.076;3.578;2023-02-18T10:13:12;19.50;51.70
59977;DHT22;45837;51.076;3.578;2023-02-18T10:15:39;19.50;51.80
59977;DHT22;45837;51.076;3.578;2023-02-18T10:18:05;19.50;51.90
59977;DHT22;45837;51.076;3.578;2023-02-18T10:20:36;19.60;53.00
59977;DHT22;45837;51.076;3.578;2023-02-18T10:23:02;19.50;53.50
59977;DHT22;45837;51.076;3.578;2023-02-18T10:25:30;19.40;53.20
59977;DHT22;45837;51.076;3.578;2023-02-18T10:27:56;19.50;53.70
59977;DHT22;45837;51.076;3.578;2023-02-18T10:30:27;19.40;52.80
59977;DHT22;45837;51.076;3.578;2023-02-18T10:32:58;19.40;52.90
59977;DHT22;45837;51.076;3.578;2023-02-18T10:35:30;19.40;53.10
59977;DHT22;45837;51.076;3.578;2023-02-18T10:38:02;19.40;53.00
59977;DHT22;45837;51.076;3.578;2023-02-18T10:51:32;19.40;54.50
59977;DHT22;45837;51.076;3.578;2023-02-18T10:53:56;19.40;54.20
59977;DHT22;45837;51.076;3.578;2023-02-18T10:59:01;19.30;53.20
59977;DHT22;45837;51.076;3.578;2023-02-18T11:01:29;19.30;53.20
59977;DHT22;45837;51.076;3.578;2023-02-18T11:04:13;19.40;54.30
59977;DHT22;45837;51.076;3.578;2023-02-18T11:06:41;19.30;53.20
59977;DHT22;45837;51.076;3.578;2023-02-18T11:09:12;19.30;52.70
59977;DHT22;45837;51.076;3.578;2023-02-18T11:11:48;19.30;53.40
59977;DHT22;45837;51.076;3.578;2023-02-18T11:14:14;19.30;54.10
59977;DHT22;45837;51.076;3.578;2023-02-18T11:16:43;19.30;53.40
59977;DHT22;45837;51.076;3.578;2023-02-18T11:21:53;19.30;53.40
59977;DHT22;45837;51.076;3.578;2023-02-18T11:24:30;19.20;53.50
59977;DHT22;45837;51.076;3.578;2023-02-18T11:26:56;19.30;54.40
59977;DHT22;45837;51.076;3.578;2023-02-18T11:29:23;19.20;53.60
59977;DHT22;45837;51.076;3.578;2023-02-18T11:31:51;19.20;53.70
59977;DHT22;45837;51.076;3.578;2023-02-18T11:34:21;19.20;54.00
59977;DHT22;45837;51.076;3.578;2023-02-18T11:36:48;19.20;53.60
59977;DHT22;45837;51.076;3.578;2023-02-18T11:39:24;19.20;54.10
59977;DHT22;45837;51.076;3.578;2023-02-18T11:41:57;19.20;53.60
59977;DHT22;45837;51.076;3.578;2023-02-18T11:47:02;19.20;54.50
59977;DHT22;45837;51.076;3.578;2023-02-18T11:49:29;19.20;53.70
59977;DHT22;45837;51.076;3.578;2023-02-18T11:52:02;18.00;53.30
59977;DHT22;45837;51.076;3.578;2023-02-18T11:54:28;19.20;53.80
59977;DHT22;45837;51.076;3.578;2023-02-18T11:59:20;19.20;54.90
59977;DHT22;45837;51.076;3.578;2023-02-18T12:01:49;19.10;53.90
59977;DHT22;45837;51.076;3.578;2023-02-18T12:04:16;19.10;54.00
59977;DHT22;45837;51.076;3.578;2023-02-18T12:06:48;19.10;54.10
59977;DHT22;45837;51.076;3.578;2023-02-18T12:10:15;19.10;53.80
59977;DHT22;45837;51.076;3.578;2023-02-18T12:12:14;19.10;53.80
59977;DHT22;45837;51.076;3.578;2023-02-18T12:14:41;19.10;53.80
59977;DHT22;45837;51.076;3.578;2023-02-18T12:22:29;19.10;53.90
59977;DHT22;45837;51.076;3.578;2023-02-18T12:32:39;19.10;54.00
59977;DHT22;45837;51.076;3.578;2023-02-18T12:43:08;19.00;54.00
59977;DHT22;45837;51.076;3.578;2023-02-18T12:48:13;19.20;54.20
59977;DHT22;45837;51.076;3.578;2023-02-18T12:50:47;19.00;54.10
59977;DHT22;45837;51.076;3.578;2023-02-18T12:53:24;19.00;54.50
59977;DHT22;45837;51.076;3.578;2023-02-18T13:00:50;19.00;54.90
59977;DHT22;45837;51.076;3.578;2023-02-18T13:14:08;19.00;54.80
59977;DHT22;45837;51.076;3.578;2023-02-18T13:16:35;18.90;53.60
59977;DHT22;45837;51.076;3.578;2023-02-18T13:19:22;19.00;54.70
59977;DHT22;45837;51.076;3.578;2023-02-18T13:21:49;19.00;54.20
59977;DHT22;45837;51.076;3.578;2023-02-18T13:24:21;19.00;54.40
59977;DHT22;45837;51.076;3.578;2023-02-18T13:26:47;19.10;54.80
59977;DHT22;45837;51.076;3.578;2023-02-18T13:39:13;18.90;54.30
59977;DHT22;45837;51.076;3.578;2023-02-18T13:41:49;18.90;53.70
59977;DHT22;45837;51.076;3.578;2023-02-18T13:46:50;18.90;53.70
59977;DHT22;45837;51.076;3.578;2023-02-18T13:49:20;18.90;54.80
59977;DHT22;45837;51.076;3.578;2023-02-18T13:51:48;18.90;53.80
59977;DHT22;45837;51.076;3.578;2023-02-18T13:54:19;19.00;54.70
59977;DHT22;45837;51.076;3.578;2023-02-18T13:56:51;19.00;54.40
59977;DHT22;45837;51.076;3.578;2023-02-18T13:59:19;18.90;54.30
59977;DHT22;45837;51.076;3.578;2023-02-18T14:01:50;19.00;55.00
59977;DHT22;45837;51.076;3.578;2023-02-18T14:09:43;18.90;55.60
59977;DHT22;45837;51.076;3.578;2023-02-18T14:14:54;18.90;54.50
59977;DHT22;45837;51.076;3.578;2023-02-18T14:24:56;18.90;54.50
59977;DHT22;45837;51.076;3.578;2023-02-18T14:27:25;18.80;55.20
59977;DHT22;45837;51.076;3.578;2023-02-18T14:29:51;19.00;55.00
59977;DHT22;45837;51.076;3.578;2023-02-18T14:32:17;18.90;55.00
59977;DHT22;45837;51.076;3.578;2023-02-18T14:37:36;18.90;55.00
59977;DHT22;45837;51.076;3.578;2023-02-18T14:40:25;18.90;54.50
59977;DHT22;45837;51.076;3.578;2023-02-18T14:48:17;18.80;54.50
59977;DHT22;45837;51.076;3.578;2023-02-18T14:50:46;18.90;54.50
59977;DHT22;45837;51.076;3.578;2023-02-18T14:53:14;18.80;54.60
59977;DHT22;45837;51.076;3.578;2023-02-18T14:55:43;18.80;54.90
59977;DHT22;45837;51.076;3.578;2023-02-18T15:00:55;18.80;54.50
59977;DHT22;45837;51.076;3.578;2023-02-18T15:03:21;18.80;55.30
59977;DHT22;45837;51.076;3.578;2023-02-18T15:05:50;18.90;55.60
59977;DHT22;45837;51.076;3.578;2023-02-18T15:08:17;18.80;54.50
59977;DHT22;45837;51.076;3.578;2023-02-18T15:10:44;18.80;54.70
59977;DHT22;45837;51.076;3.578;2023-02-18T15:13:16;18.90;54.90
59977;DHT22;45837;51.076;3.578;2023-02-18T15:15:42;18.80;54.50
59977;DHT22;45837;51.076;3.578;2023-02-18T15:18:54;18.70;54.00
59977;DHT22;45837;51.076;3.578;2023-02-18T15:20:55;18.70;54.80
59977;DHT22;45837;51.076;3.578;2023-02-18T15:23:21;18.70;55.70
59977;DHT22;45837;51.076;3.578;2023-02-18T15:25:48;18.70;55.60
59977;DHT22;45837;51.076;3.578;2023-02-18T15:28:21;18.70;54.80
59977;DHT22;45837;51.076;3.578;2023-02-18T15:30:48;18.70;54.60
59977;DHT22;45837;51.076;3.578;2023-02-18T15:33:13;18.70;55.30
59977;DHT22;45837;51.076;3.578;2023-02-18T15:35:42;18.90;55.00
59977;DHT22;45837;51.076;3.578;2023-02-18T15:38:17;18.70;56.10
59977;DHT22;45837;51.076;3.578;2023-02-18T15:40:45;18.70;54.60
59977;DHT22;45837;51.076;3.578;2023-02-18T15:43:14;18.70;54.80
59977;DHT22;45837;51.076;3.578;2023-02-18T15:45:43;18.80;54.90
59977;DHT22;45837;51.076;3.578;2023-02-18T15:48:32;18.80;54.60
59977;DHT22;45837;51.076;3.578;2023-02-18T15:51:03;18.70;54.50
59977;DHT22;45837;51.076;3.578;2023-02-18T15:53:30;16.80;53.60
59977;DHT22;45837;51.076;3.578;2023-02-18T15:56:04;18.70;54.60
59977;DHT22;45837;51.076;3.578;2023-02-18T15:58:30;18.70;55.00
59977;DHT22;45837;51.076;3.578;2023-02-18T16:01:01;18.70;54.70
59977;DHT22;45837;51.076;3.578;2023-02-18T16:03:30;18.70;54.70
59977;DHT22;45837;51.076;3.578;2023-02-18T16:08:33;18.70;54.60
59977;DHT22;45837;51.076;3.578;2023-02-18T16:11:00;18.70;55.50
59977;DHT22;45837;51.076;3.578;2023-02-18T16:13:27;18.70;54.80
59977;DHT22;45837;51.076;3.578;2023-02-18T16:15:55;18.60;54.10
59977;DHT22;45837;51.076;3.578;2023-02-18T16:23:43;18.60;54.20
59977;DHT22;45837;51.076;3.578;2023-02-18T16:26:19;18.60;54.30
59977;DHT22;45837;51.076;3.578;2023-02-18T16:28:46;18.60;54.70
59977;DHT22;45837;51.076;3.578;2023-02-18T16:31:11;18.50;55.20
59977;DHT22;45837;51.076;3.578;2023-02-18T16:33:37;18.60;56.30
59977;DHT22;45837;51.076;3.578;2023-02-18T16:36:03;18.60;57.10
59977;DHT22;45837;51.076;3.578;2023-02-18T16:38:29;18.60;57.50
59977;DHT22;45837;51.076;3.578;2023-02-18T16:40:54;18.60;57.00
59977;DHT22;45837;51.076;3.578;2023-02-18T16:43:21;18.70;56.90
59977;DHT22;45837;51.076;3.578;2023-02-18T16:50:44;18.70;57.40
59977;DHT22;45837;51.076;3.578;2023-02-18T16:53:11;18.70;56.80
59977;DHT22;45837;51.076;3.578;2023-02-18T16:55:37;18.70;56.80
59977;DHT22;45837;51.076;3.578;2023-02-18T16:58:03;18.70;56.80
59977;DHT22;45837;51.076;3.578;2023-02-18T17:00:29;18.70;56.70
59977;DHT22;45837;51.076;3.578;2023-02-18T17:02:55;18.70;56.80
59977;DHT22;45837;51.076;3.578;2023-02-18T17:05:22;18.70;56.90
59977;DHT22;45837;51.076;3.578;2023-02-18T17:07:48;18.70;56.90
59977;DHT22;45837;51.076;3.578;2023-02-18T17:10:13;18.70;56.80
59977;DHT22;45837;51.076;3.578;2023-02-18T17:12:39;18.70;56.80
59977;DHT22;45837;51.076;3.578;2023-02-18T17:17:41;18.70;56.80
59977;DHT22;45837;51.076;3.578;2023-02-18T17:20:07;18.70;56.80
59977;DHT22;45837;51.076;3.578;2023-02-18T17:22:33;18.70;56.80
59977;DHT22;45837;51.076;3.578;2023-02-18T17:24:58;18.60;56.80
59977;DHT22;45837;51.076;3.578;2023-02-18T17:27:24;18.70;56.80
59977;DHT22;45837;51.076;3.578;2023-02-18T17:29:50;18.70;56.80
59977;DHT22;45837;51.076;3.578;2023-02-18T17:32:15;18.60;56.70
59977;DHT22;45837;51.076;3.578;2023-02-18T17:34:41;18.60;56.70
59977;DHT22;45837;51.076;3.578;2023-02-18T17:37:11;18.70;56.80
59977;DHT22;45837;51.076;3.578;2023-02-18T17:39:36;18.70;57.40
59977;DHT22;45837;51.076;3.578;2023-02-18T17:42:02;18.60;56.90
59977;DHT22;45837;51.076;3.578;2023-02-18T17:44:28;18.70;57.00
59977;DHT22;45837;51.076;3.578;2023-02-18T17:46:54;18.70;57.10
59977;DHT22;45837;51.076;3.578;2023-02-18T17:49:20;18.70;57.00
59977;DHT22;45837;51.076;3.578;2023-02-18T17:51:46;18.80;57.00
59977;DHT22;45837;51.076;3.578;2023-02-18T17:54:13;18.70;57.10
59977;DHT22;45837;51.076;3.578;2023-02-18T17:56:40;18.80;57.10
59977;DHT22;45837;51.076;3.578;2023-02-18T17:59:06;18.80;57.10
59977;DHT22;45837;51.076;3.578;2023-02-18T18:01:31;18.80;57.10
59977;DHT22;45837;51.076;3.578;2023-02-18T18:03:57;18.80;57.10